ZNE weather

Newman Airport
Newman, Western Australia, Australia

Public forecast

Using degrees Celsius for public forecast. Weather courtesy of forecast.io.

Current aviation weather report (METAR) for Newman Airport

Retrieved 2020/01/28 19:00 UTC (11 minutes ago):

YNWN 281900Z AUTO 00000KT 9999 // NCD 28/12 Q1008

Closest aviation forecast (TAF) to Newman Airport

Forecast is more than 12 hours old.

Closest forecast is Telfer Airport, 168.9 nm (312.9 km) NE. Retrieved 2017/06/24 02:03 UTC (3 years ago):

TAF TAF YTEF 240051Z 2402/2414 12005KT CAVOK FM240500 33005KT 9999 -SHRA SCT060 BKN100